Time;durP1;ratioP1;P1;durP2;ratioP2;P2;SDS_P1;SDS_P2;PMS_P1;PMS_P2;Temp;Humidity;BMP_temperature;BMP_pressure;BME280_temperature;BME280_humidity;BME280_pressure;Samples;Min_cycle;Max_cycle;Signal;HPM_P1;HPM_P2
2022/01/20 00:00:13;;;;;;;3.57;3.27;;;7.70;89.90;;;;;;921569;154;27505;-80
2022/01/20 00:02:26;;;;;;;3.70;3.40;;;7.70;89.80;;;;;;920348;151;28140;-80
2022/01/20 00:05:08;;;;;;;3.30;3.07;;;7.70;89.90;;;;;;920043;152;27357;-80
2022/01/20 00:25:45;;;;;;;3.57;3.20;;;7.70;88.90;;;;;;921190;151;27750;-80
2022/01/20 00:26:02;;;;;;;2.90;2.70;;;7.60;89.10;;;;;;919118;155;27433;-80
2022/01/20 00:28:37;;;;;;;3.33;3.13;;;7.60;89.50;;;;;;922142;151;27439;-80
2022/01/20 00:31:13;;;;;;;3.10;2.90;;;7.60;89.80;;;;;;918014;151;27837;-80
2022/01/20 00:33:40;;;;;;;3.50;3.20;;;7.60;90.00;;;;;;921774;154;27425;-80
2022/01/20 00:38:34;;;;;;;3.07;2.80;;;7.60;90.10;;;;;;923293;151;27325;-80
2022/01/20 00:41:01;;;;;;;3.30;3.00;;;7.70;90.20;;;;;;921069;152;27389;-80
2022/01/20 00:43:28;;;;;;;3.03;2.83;;;7.70;90.30;;;;;;923160;154;27866;-80
2022/01/20 00:45:54;;;;;;;3.33;3.03;;;7.70;90.20;;;;;;921034;152;27866;-80
2022/01/20 00:48:21;;;;;;;3.30;3.10;;;7.70;90.20;;;;;;922916;155;27310;-80
2022/01/20 00:50:47;;;;;;;3.50;3.20;;;7.70;90.20;;;;;;921026;151;27431;-80
2022/01/20 00:53:14;;;;;;;3.77;3.40;;;7.70;90.20;;;;;;920561;155;27400;-80
2022/01/20 00:55:41;;;;;;;3.30;3.00;;;7.80;90.20;;;;;;923235;153;27429;-80
2022/01/20 00:58:07;;;;;;;3.10;2.87;;;7.70;90.20;;;;;;924429;154;27857;-80
2022/01/20 01:00:34;;;;;;;3.20;2.90;;;7.80;90.30;;;;;;924650;152;27419;-80
2022/01/20 01:03:00;;;;;;;3.50;3.27;;;7.80;90.30;;;;;;923662;152;27444;-80
2022/01/20 01:05:30;;;;;;;3.03;2.83;;;7.80;90.20;;;;;;923814;154;27466;-80
2022/01/20 01:07:57;;;;;;;3.33;3.10;;;7.80;90.20;;;;;;924652;151;28510;-80
2022/01/20 01:10:29;;;;;;;3.50;3.20;;;7.90;90.30;;;;;;924035;154;27306;-80
2022/01/20 01:13:06;;;;;;;3.27;2.97;;;7.90;90.20;;;;;;923644;154;27338;-80
2022/01/20 01:15:34;;;;;;;3.60;3.30;;;7.90;90.30;;;;;;924581;151;27420;-80
2022/01/20 01:23:24;;;;;;;3.03;2.83;;;7.90;90.00;;;;;;924502;151;27464;-80
2022/01/20 01:25:51;;;;;;;3.20;3.00;;;7.90;90.00;;;;;;923822;154;27322;-80
2022/01/20 01:28:18;;;;;;;3.23;3.00;;;7.90;90.00;;;;;;923169;151;27436;-80
2022/01/20 01:31:08;;;;;;;3.00;2.80;;;7.90;90.10;;;;;;923976;151;27390;-80
2022/01/20 01:33:10;;;;;;;3.00;2.80;;;7.90;90.00;;;;;;924036;154;27950;-80
2022/01/20 01:35:40;;;;;;;3.70;2.93;;;7.90;90.00;;;;;;924931;154;27415;-80
2022/01/20 01:40:32;;;;;;;3.03;2.80;;;7.90;90.00;;;;;;923865;153;27845;-80
2022/01/20 01:43:07;;;;;;;3.43;3.10;;;7.80;90.00;;;;;;922602;154;27999;-79
2022/01/20 01:45:33;;;;;;;2.80;2.60;;;7.90;90.10;;;;;;924597;154;27348;-80
2022/01/20 01:47:58;;;;;;;3.23;2.93;;;7.80;90.00;;;;;;923017;154;27474;-80
2022/01/20 01:50:27;;;;;;;3.03;2.83;;;7.80;90.20;;;;;;925634;151;27404;-80
2022/01/20 01:52:57;;;;;;;3.17;2.87;;;7.80;90.10;;;;;;923972;154;27377;-80
2022/01/20 01:55:23;;;;;;;3.10;2.90;;;7.80;90.10;;;;;;923985;154;27474;-80
2022/01/20 01:57:53;;;;;;;2.53;2.37;;;7.80;90.10;;;;;;922773;152;27336;-80
2022/01/20 02:00:19;;;;;;;2.97;2.77;;;7.80;90.10;;;;;;923258;154;27357;-80
2022/01/20 02:02:49;;;;;;;3.00;2.80;;;7.70;90.00;;;;;;923205;154;27365;-79
2022/01/20 02:05:17;;;;;;;3.20;2.90;;;7.70;90.00;;;;;;923707;154;27973;-80
2022/01/20 02:18:48;;;;;;;2.87;2.50;;;7.50;88.50;;;;;;924451;154;27902;-80
2022/01/20 02:21:11;;;;;;;4.43;3.00;;;7.30;87.70;;;;;;925007;151;27315;-80
2022/01/20 02:23:37;;;;;;;3.00;2.60;;;7.20;88.60;;;;;;924050;150;27341;-80
2022/01/20 02:26:04;;;;;;;3.23;2.33;;;7.10;88.90;;;;;;926773;152;27425;-79
2022/01/20 02:28:30;;;;;;;4.10;3.00;;;7.00;89.10;;;;;;922783;151;27502;-80
2022/01/20 02:30:57;;;;;;;4.63;2.83;;;7.00;89.50;;;;;;925115;154;27481;-79
2022/01/20 02:33:24;;;;;;;2.63;2.43;;;6.90;89.90;;;;;;922205;154;27333;-80
2022/01/20 02:35:50;;;;;;;3.37;3.00;;;6.80;90.00;;;;;;924312;154;27329;-80
2022/01/20 02:38:27;;;;;;;2.90;2.70;;;6.80;90.00;;;;;;925216;151;27313;-80
2022/01/20 02:46:15;;;;;;;2.53;2.33;;;6.60;90.10;;;;;;924034;154;28476;-81
2022/01/20 02:48:42;;;;;;;3.60;2.73;;;6.50;90.10;;;;;;925445;154;27343;-81
2022/01/20 02:51:09;;;;;;;3.70;2.33;;;6.40;90.10;;;;;;924319;151;27346;-80
2022/01/20 02:53:35;;;;;;;2.80;2.60;;;6.30;90.20;;;;;;924311;154;27455;-80
2022/01/20 02:56:02;;;;;;;3.50;2.97;;;6.30;90.50;;;;;;920566;154;27420;-80
2022/01/20 02:58:28;;;;;;;3.13;2.57;;;6.30;90.80;;;;;;875665;160;27405;-80
2022/01/20 03:00:55;;;;;;;3.17;2.87;;;6.30;91.10;;;;;;916427;154;27371;-80
2022/01/20 03:03:22;;;;;;;3.63;3.27;;;6.20;91.30;;;;;;919799;154;27367;-80
2022/01/20 03:05:48;;;;;;;4.87;3.40;;;6.30;91.60;;;;;;918720;154;27686;-80
2022/01/20 03:08:15;;;;;;;2.90;2.70;;;6.30;91.80;;;;;;918106;155;27383;-80
2022/01/20 03:10:41;;;;;;;3.30;3.00;;;6.40;91.90;;;;;;917865;155;28801;-80
2022/01/20 03:13:08;;;;;;;4.17;3.07;;;6.40;92.00;;;;;;917187;155;28195;-79
2022/01/20 03:15:35;;;;;;;2.87;2.67;;;6.50;92.10;;;;;;933793;147;85464;-71
2022/01/20 03:18:01;;;;;;;4.30;3.17;;;6.60;92.10;;;;;;943928;148;27304;-71
2022/01/20 03:20:28;;;;;;;3.20;2.90;;;6.60;92.30;;;;;;944245;148;27429;-71
2022/01/20 03:22:54;;;;;;;3.67;2.93;;;6.70;92.40;;;;;;944661;148;27339;-71
2022/01/20 03:25:21;;;;;;;5.03;3.07;;;6.80;92.40;;;;;;944703;148;27336;-71
2022/01/20 03:27:47;;;;;;;3.30;2.87;;;6.80;92.40;;;;;;947059;148;27420;-72
2022/01/20 03:30:14;;;;;;;3.07;2.80;;;6.90;92.30;;;;;;946224;148;27383;-71
2022/01/20 03:32:41;;;;;;;5.77;2.67;;;7.00;92.10;;;;;;946578;148;27396;-73
2022/01/20 03:35:07;;;;;;;4.73;2.57;;;7.00;91.80;;;;;;943834;148;27395;-74
2022/01/20 03:37:34;;;;;;;4.20;2.67;;;7.00;91.40;;;;;;944359;148;27424;-73
2022/01/20 03:40:00;;;;;;;4.10;2.53;;;7.00;91.20;;;;;;945639;148;27446;-74
2022/01/20 03:42:27;;;;;;;4.17;3.20;;;6.90;90.90;;;;;;943699;148;27317;-74
2022/01/20 03:44:54;;;;;;;3.60;2.57;;;6.80;90.70;;;;;;948227;148;27392;-73
2022/01/20 03:47:23;;;;;;;4.40;2.50;;;6.80;90.70;;;;;;944699;148;27387;-74
2022/01/20 03:52:25;;;;;;;3.87;2.63;;;6.60;90.60;;;;;;943039;148;27428;-74
2022/01/20 03:54:52;;;;;;;4.30;2.97;;;6.40;90.50;;;;;;946358;148;27349;-74
2022/01/20 03:57:18;;;;;;;2.90;2.70;;;6.30;90.60;;;;;;944867;148;27392;-73
2022/01/20 03:59:45;;;;;;;4.37;2.90;;;6.20;90.60;;;;;;944270;148;27432;-74
2022/01/20 04:02:11;;;;;;;3.00;2.67;;;6.20;90.80;;;;;;943691;148;27422;-74
2022/01/20 04:04:38;;;;;;;3.60;2.90;;;6.10;90.90;;;;;;944659;148;27683;-74
2022/01/20 04:07:05;;;;;;;5.13;2.77;;;6.00;91.00;;;;;;945432;148;27804;-74
2022/01/20 04:09:31;;;;;;;4.63;3.23;;;5.90;91.20;;;;;;943628;147;27461;-73
2022/01/20 04:11:58;;;;;;;7.03;3.07;;;5.90;91.30;;;;;;943484;148;27400;-74
2022/01/20 04:14:26;;;;;;;4.87;2.87;;;5.80;91.50;;;;;;946181;148;27363;-74
2022/01/20 04:17:01;;;;;;;3.73;2.93;;;5.80;91.80;;;;;;935701;151;28106;-74
2022/01/20 04:19:20;;;;;;;3.10;2.67;;;5.80;92.00;;;;;;934893;152;27348;-74
2022/01/20 04:21:46;;;;;;;4.00;2.57;;;5.80;92.20;;;;;;935848;150;27410;-74
2022/01/20 04:24:14;;;;;;;5.07;2.73;;;5.80;92.40;;;;;;936231;152;27480;-74
2022/01/20 04:26:41;;;;;;;4.77;2.70;;;5.80;92.60;;;;;;938762;152;27481;-74
2022/01/20 04:29:06;;;;;;;4.43;3.40;;;5.90;92.80;;;;;;937657;152;27443;-74
2022/01/20 04:31:33;;;;;;;3.97;3.30;;;5.90;92.90;;;;;;936250;152;27751;-73
2022/01/20 04:33:59;;;;;;;4.20;3.30;;;6.00;92.90;;;;;;937403;152;27809;-74
2022/01/20 04:36:26;;;;;;;6.03;2.90;;;6.00;93.20;;;;;;938067;152;27348;-74
2022/01/20 04:38:53;;;;;;;4.63;3.57;;;6.10;92.80;;;;;;936485;150;27506;-74
2022/01/20 04:41:23;;;;;;;4.90;3.10;;;6.10;92.70;;;;;;936601;152;27335;-74
2022/01/20 04:43:48;;;;;;;3.47;2.77;;;6.20;92.60;;;;;;937935;152;27380;-74
2022/01/20 04:46:31;;;;;;;3.83;3.27;;;6.20;92.40;;;;;;936162;152;27921;-75
2022/01/20 04:49:05;;;;;;;7.17;3.70;;;6.20;92.30;;;;;;935944;152;27671;-74
2022/01/20 04:59:28;;;;;;;5.13;2.80;;;6.10;91.50;;;;;;938033;152;27405;-74
2022/01/20 05:01:55;;;;;;;5.00;3.20;;;6.00;91.50;;;;;;936523;152;27394;-75
2022/01/20 05:04:23;;;;;;;6.43;3.13;;;5.90;91.50;;;;;;938097;152;27282;-75
2022/01/20 05:06:49;;;;;;;7.93;3.40;;;5.90;91.60;;;;;;937905;152;27326;-74
2022/01/20 05:09:19;;;;;;;4.37;3.10;;;5.80;91.70;;;;;;937210;152;27483;-74
2022/01/20 05:11:48;;;;;;;7.40;3.90;;;5.80;91.80;;;;;;936568;152;27410;-74
2022/01/20 05:14:11;;;;;;;4.47;3.00;;;5.80;92.10;;;;;;936342;149;27375;-75
2022/01/20 05:16:40;;;;;;;4.67;2.97;;;5.70;92.30;;;;;;934008;152;27404;-74
2022/01/20 05:19:07;;;;;;;4.70;3.10;;;5.80;92.50;;;;;;936229;152;27387;-75
2022/01/20 05:21:34;;;;;;;4.03;2.90;;;5.80;92.70;;;;;;936894;152;27358;-74
2022/01/20 05:24:03;;;;;;;7.63;3.70;;;5.80;92.90;;;;;;937071;152;27401;-74
2022/01/20 05:26:30;;;;;;;4.47;3.13;;;5.80;93.00;;;;;;937211;152;27307;-75
2022/01/20 05:28:56;;;;;;;6.77;3.30;;;5.90;93.10;;;;;;935680;150;27322;-74
2022/01/20 05:31:26;;;;;;;4.07;3.60;;;6.00;93.20;;;;;;936554;152;27791;-74
2022/01/20 05:33:52;;;;;;;6.27;3.63;;;6.00;93.20;;;;;;937763;152;27313;-74
2022/01/20 05:36:22;;;;;;;4.80;3.00;;;6.10;93.20;;;;;;937358;152;27472;-75
2022/01/20 05:38:48;;;;;;;6.07;3.07;;;6.20;93.30;;;;;;938602;150;27358;-74
2022/01/20 05:41:15;;;;;;;6.57;3.17;;;6.20;93.30;;;;;;937410;152;27322;-74
2022/01/20 05:43:42;;;;;;;9.53;3.50;;;6.30;93.40;;;;;;937945;152;27437;-74
2022/01/20 05:46:09;;;;;;;8.37;2.90;;;6.40;93.40;;;;;;939290;152;27315;-75
2022/01/20 05:48:36;;;;;;;7.77;3.23;;;6.40;93.40;;;;;;937048;152;27931;-75
2022/01/20 05:51:04;;;;;;;8.03;3.63;;;6.50;93.30;;;;;;936538;150;27829;-75
2022/01/20 05:53:31;;;;;;;8.27;3.33;;;6.60;93.20;;;;;;935295;152;27369;-75
2022/01/20 05:55:58;;;;;;;9.80;3.93;;;6.60;93.00;;;;;;936921;152;27415;-74
2022/01/20 05:58:24;;;;;;;6.23;3.30;;;6.70;92.80;;;;;;936674;152;27439;-74
2022/01/20 06:00:51;;;;;;;7.93;3.00;;;6.70;92.60;;;;;;936442;152;27379;-74
2022/01/20 06:06:02;;;;;;;9.90;3.43;;;6.70;92.20;;;;;;936803;152;27440;-75
2022/01/20 06:08:29;;;;;;;12.07;3.37;;;6.70;91.90;;;;;;937551;152;28040;-74
2022/01/20 06:10:55;;;;;;;5.00;3.90;;;6.70;91.80;;;;;;936709;151;27366;-75
2022/01/20 06:13:22;;;;;;;6.87;2.50;;;6.60;91.70;;;;;;936499;152;27440;-74
2022/01/20 06:15:49;;;;;;;5.80;3.27;;;6.60;91.60;;;;;;935990;151;27438;-75
2022/01/20 06:18:15;;;;;;;9.83;3.97;;;6.60;91.70;;;;;;937926;152;27882;-75
2022/01/20 06:20:42;;;;;;;8.23;3.50;;;6.50;91.70;;;;;;936383;152;27295;-74
2022/01/20 06:23:11;;;;;;;10.13;3.33;;;6.50;91.90;;;;;;936914;150;27357;-75
2022/01/20 06:25:37;;;;;;;8.87;4.23;;;6.40;92.00;;;;;;937390;152;27450;-74
2022/01/20 06:28:04;;;;;;;9.00;3.13;;;6.40;92.20;;;;;;935984;150;27468;-74
2022/01/20 06:30:31;;;;;;;8.97;3.07;;;6.40;92.20;;;;;;937960;152;27323;-74
2022/01/20 06:32:57;;;;;;;4.83;2.90;;;6.40;92.30;;;;;;935289;152;27338;-74
2022/01/20 06:35:24;;;;;;;6.63;2.87;;;6.50;92.40;;;;;;938036;152;28893;-75
2022/01/20 06:37:50;;;;;;;14.23;3.10;;;6.50;92.40;;;;;;936499;152;27350;-74
2022/01/20 06:40:17;;;;;;;7.07;3.00;;;6.50;92.50;;;;;;935590;150;27415;-74
2022/01/20 06:42:43;;;;;;;8.07;3.13;;;6.50;92.50;;;;;;935282;152;27355;-74
2022/01/20 06:45:10;;;;;;;8.83;3.30;;;6.50;92.40;;;;;;938178;151;27433;-74
2022/01/20 06:47:36;;;;;;;6.93;2.80;;;6.50;92.40;;;;;;936438;152;27358;-75
2022/01/20 06:50:03;;;;;;;5.47;2.27;;;6.60;92.50;;;;;;935823;150;27390;-75
2022/01/20 06:52:30;;;;;;;5.63;2.43;;;6.60;92.30;;;;;;935360;152;27386;-75
2022/01/20 06:54:58;;;;;;;4.93;3.03;;;6.60;92.20;;;;;;936938;152;27322;-74
2022/01/20 06:57:23;;;;;;;7.57;2.70;;;6.60;92.10;;;;;;936116;152;27420;-74
2022/01/20 06:59:49;;;;;;;5.50;2.47;;;6.60;92.00;;;;;;934941;151;27349;-74
2022/01/20 07:02:16;;;;;;;4.37;2.10;;;6.60;92.10;;;;;;938371;152;27451;-73
2022/01/20 07:04:47;;;;;;;5.33;2.23;;;6.60;92.30;;;;;;937421;150;27844;-74
2022/01/20 07:07:12;;;;;;;3.87;2.40;;;6.60;92.40;;;;;;936032;152;27353;-74
2022/01/20 07:09:39;;;;;;;8.70;2.50;;;6.60;92.50;;;;;;937086;152;27387;-74
2022/01/20 07:12:05;;;;;;;4.30;2.27;;;6.60;92.50;;;;;;937945;151;27690;-74
2022/01/20 07:14:32;;;;;;;7.40;2.20;;;6.60;92.50;;;;;;935269;149;27892;-74
2022/01/20 07:16:58;;;;;;;3.93;2.10;;;6.60;92.60;;;;;;933946;150;27476;-73
2022/01/20 07:19:25;;;;;;;3.63;2.57;;;6.70;92.60;;;;;;935956;152;27330;-74
2022/01/20 07:21:52;;;;;;;4.47;2.90;;;6.70;92.60;;;;;;937075;150;27447;-74
2022/01/20 07:24:18;;;;;;;3.70;2.40;;;6.70;92.50;;;;;;937992;151;27434;-74
2022/01/20 07:26:45;;;;;;;4.70;2.20;;;6.80;92.30;;;;;;937540;151;27374;-74
2022/01/20 07:29:11;;;;;;;8.60;2.83;;;6.80;92.20;;;;;;934850;150;27481;-74
2022/01/20 07:31:38;;;;;;;5.50;2.33;;;6.80;91.90;;;;;;936698;152;27353;-74
2022/01/20 07:34:04;;;;;;;7.33;2.63;;;6.70;92.10;;;;;;935100;152;27415;-74
2022/01/20 07:36:31;;;;;;;7.50;3.03;;;6.70;91.70;;;;;;936661;152;27366;-74
2022/01/20 07:38:58;;;;;;;5.17;2.40;;;6.70;91.80;;;;;;937523;150;27451;-74
2022/01/20 07:41:27;;;;;;;6.60;2.83;;;6.60;91.90;;;;;;936099;152;27759;-74
2022/01/20 07:43:54;;;;;;;7.60;2.50;;;6.60;92.00;;;;;;935659;152;28542;-74
2022/01/20 07:46:23;;;;;;;6.23;2.47;;;6.60;92.20;;;;;;936857;152;27355;-74
2022/01/20 07:48:50;;;;;;;5.17;2.10;;;6.60;92.30;;;;;;936148;152;27326;-74
2022/01/20 07:51:16;;;;;;;7.60;3.17;;;6.60;92.40;;;;;;937003;150;27395;-74
2022/01/20 07:53:43;;;;;;;6.57;2.50;;;6.60;92.40;;;;;;938799;152;27354;-74
2022/01/20 07:56:09;;;;;;;6.07;2.33;;;6.70;92.40;;;;;;936506;152;27961;-74
2022/01/20 07:58:36;;;;;;;7.07;2.20;;;6.70;92.10;;;;;;938589;152;27411;-74
2022/01/20 08:01:03;;;;;;;5.60;2.03;;;6.70;92.60;;;;;;936653;151;27343;-74
2022/01/20 08:03:29;;;;;;;6.17;2.60;;;6.80;92.80;;;;;;938271;152;27488;-74
2022/01/20 08:05:56;;;;;;;5.20;2.10;;;6.90;93.00;;;;;;937611;152;27483;-74
2022/01/20 08:08:22;;;;;;;7.07;1.97;;;7.00;93.20;;;;;;938099;152;27286;-74
2022/01/20 08:10:49;;;;;;;5.53;2.17;;;7.10;93.90;;;;;;937385;152;27428;-74
2022/01/20 08:13:16;;;;;;;2.90;2.00;;;7.40;94.30;;;;;;936940;152;27338;-74
2022/01/20 08:15:44;;;;;;;6.37;2.10;;;7.70;94.80;;;;;;935813;149;27413;-74
2022/01/20 08:18:09;;;;;;;4.80;2.00;;;8.00;94.60;;;;;;937045;151;27409;-74
2022/01/20 08:20:35;;;;;;;4.33;1.83;;;8.20;93.80;;;;;;943798;149;27467;-74
2022/01/20 08:23:02;;;;;;;4.30;2.03;;;8.40;92.90;;;;;;942139;148;27465;-74
2022/01/20 08:25:28;;;;;;;5.30;2.40;;;8.50;92.20;;;;;;940622;149;27324;-74
2022/01/20 08:27:55;;;;;;;4.87;1.97;;;8.60;91.70;;;;;;943336;148;27369;-74
2022/01/20 08:30:22;;;;;;;4.00;1.90;;;8.60;91.10;;;;;;942624;149;27495;-74
2022/01/20 08:32:48;;;;;;;6.27;2.07;;;8.60;90.80;;;;;;943164;149;27479;-74
2022/01/20 08:35:15;;;;;;;3.30;1.90;;;8.50;90.60;;;;;;942483;149;27339;-74
2022/01/20 08:37:43;;;;;;;5.17;2.10;;;8.50;90.50;;;;;;943458;149;27378;-73
2022/01/20 08:40:14;;;;;;;3.87;1.70;;;8.40;90.40;;;;;;943406;148;27314;-73
2022/01/20 08:42:40;;;;;;;3.93;1.70;;;8.40;90.40;;;;;;942874;149;27473;-73
2022/01/20 08:45:07;;;;;;;5.00;1.50;;;8.30;90.30;;;;;;943130;149;27335;-74
2022/01/20 08:47:33;;;;;;;1.57;1.40;;;8.30;90.40;;;;;;941353;149;27328;-73
2022/01/20 08:50:00;;;;;;;2.30;1.27;;;8.20;90.40;;;;;;943636;148;27389;-73
2022/01/20 08:52:29;;;;;;;2.40;1.27;;;8.20;90.50;;;;;;942286;149;27353;-73
2022/01/20 08:54:53;;;;;;;2.27;1.30;;;8.10;90.40;;;;;;940648;149;27928;-73
2022/01/20 08:57:20;;;;;;;2.23;1.37;;;8.10;90.50;;;;;;942481;149;27442;-73
2022/01/20 08:59:46;;;;;;;2.43;1.40;;;8.10;90.50;;;;;;941220;149;27328;-73
2022/01/20 09:02:13;;;;;;;2.87;1.80;;;8.00;90.60;;;;;;941886;149;27355;-73
2022/01/20 09:04:39;;;;;;;5.77;1.67;;;8.10;90.70;;;;;;943390;149;27477;-74
2022/01/20 09:07:06;;;;;;;3.67;2.00;;;8.10;90.90;;;;;;941166;149;27326;-74
2022/01/20 09:09:41;;;;;;;4.90;1.80;;;8.00;91.00;;;;;;943957;149;27358;-74
2022/01/20 09:17:15;;;;;;;3.07;1.93;;;8.10;91.20;;;;;;923864;149;27357;-73
2022/01/20 09:19:41;;;;;;;2.73;1.50;;;8.10;91.30;;;;;;942372;149;27361;-73
2022/01/20 09:22:08;;;;;;;3.87;1.93;;;8.20;91.40;;;;;;943308;148;27995;-74
2022/01/20 09:24:34;;;;;;;5.73;1.70;;;8.20;91.00;;;;;;941628;149;27336;-73
2022/01/20 09:27:02;;;;;;;5.33;2.07;;;8.30;91.20;;;;;;944437;149;27836;-73
2022/01/20 09:29:28;;;;;;;6.77;2.13;;;8.30;91.10;;;;;;942447;148;27291;-73
2022/01/20 09:31:54;;;;;;;5.57;2.03;;;8.30;91.00;;;;;;939439;149;27360;-73
2022/01/20 09:34:21;;;;;;;2.73;1.77;;;8.40;91.00;;;;;;942325;149;27465;-73
2022/01/20 09:36:50;;;;;;;3.17;1.83;;;8.40;91.00;;;;;;943072;149;27344;-73
2022/01/20 09:39:17;;;;;;;2.70;1.50;;;8.40;90.90;;;;;;942844;148;27455;-73
2022/01/20 09:41:46;;;;;;;3.13;1.50;;;8.40;90.90;;;;;;943201;149;27270;-73
2022/01/20 09:44:15;;;;;;;2.80;1.27;;;8.50;90.80;;;;;;943251;149;27372;-73
2022/01/20 09:46:45;;;;;;;2.90;1.50;;;8.50;90.70;;;;;;942632;149;27291;-73
2022/01/20 09:49:11;;;;;;;1.60;1.50;;;8.50;90.40;;;;;;943577;149;27346;-73
2022/01/20 09:51:38;;;;;;;3.03;1.37;;;8.60;90.20;;;;;;942175;148;27277;-73
2022/01/20 09:54:05;;;;;;;2.30;1.47;;;8.60;90.10;;;;;;943804;149;27368;-73
2022/01/20 09:56:31;;;;;;;1.57;1.07;;;8.60;90.10;;;;;;941952;149;27389;-74
2022/01/20 09:58:58;;;;;;;1.80;1.10;;;8.70;90.00;;;;;;942038;149;27401;-73
2022/01/20 10:01:33;;;;;;;1.73;1.60;;;8.70;89.80;;;;;;943130;149;27780;-74
2022/01/20 10:04:00;;;;;;;2.80;1.70;;;8.80;89.60;;;;;;942971;149;27343;-73
2022/01/20 10:06:26;;;;;;;3.10;1.70;;;8.90;89.40;;;;;;943439;149;27341;-73
2022/01/20 10:11:31;;;;;;;2.17;1.37;;;9.00;89.20;;;;;;974292;145;37343;-71
2022/01/20 10:13:59;;;;;;;1.93;1.30;;;9.10;88.10;;;;;;956967;149;27334;-74
2022/01/20 10:16:24;;;;;;;4.30;2.43;;;9.20;88.50;;;;;;947900;148;27367;-74
2022/01/20 10:18:51;;;;;;;2.27;1.40;;;9.30;87.50;;;;;;946549;149;27439;-75
2022/01/20 10:21:17;;;;;;;3.67;1.10;;;9.30;86.90;;;;;;943968;151;27428;-74
2022/01/20 10:23:44;;;;;;;1.57;1.20;;;9.40;86.70;;;;;;946073;151;27306;-75
2022/01/20 10:26:16;;;;;;;2.73;1.10;;;9.50;85.20;;;;;;946462;149;27386;-75
2022/01/20 10:28:49;;;;;;;2.00;1.07;;;9.50;83.90;;;;;;946161;151;27428;-74
2022/01/20 10:31:16;;;;;;;2.33;1.33;;;9.60;83.40;;;;;;946170;151;27338;-75
2022/01/20 10:33:42;;;;;;;4.07;1.60;;;9.60;82.30;;;;;;946197;151;27400;-74
2022/01/20 10:36:09;;;;;;;1.47;1.30;;;9.60;81.80;;;;;;946696;150;27367;-74
2022/01/20 10:38:35;;;;;;;5.10;1.10;;;9.60;81.50;;;;;;945806;151;27252;-74
2022/01/20 10:41:04;;;;;;;2.43;1.50;;;9.60;81.40;;;;;;947120;151;27355;-74
2022/01/20 10:43:28;;;;;;;2.20;1.20;;;9.60;81.10;;;;;;946458;151;27334;-75
2022/01/20 10:46:08;;;;;;;1.37;0.97;;;9.70;80.50;;;;;;946331;148;27324;-74
2022/01/20 10:48:33;;;;;;;2.10;1.07;;;9.70;80.10;;;;;;946704;151;27589;-75
2022/01/20 10:51:00;;;;;;;2.43;1.30;;;9.70;79.60;;;;;;946849;151;27348;-74
2022/01/20 10:53:27;;;;;;;3.50;2.07;;;9.70;79.20;;;;;;947306;150;27350;-74
2022/01/20 10:55:53;;;;;;;4.53;1.33;;;9.70;79.10;;;;;;946888;151;27373;-74
2022/01/20 10:58:23;;;;;;;1.83;1.20;;;9.70;78.70;;;;;;944296;151;27296;-74
2022/01/20 11:00:55;;;;;;;2.93;1.20;;;9.80;78.50;;;;;;945551;149;27286;-74
2022/01/20 11:03:21;;;;;;;1.93;1.00;;;9.80;78.10;;;;;;946000;150;27854;-75
2022/01/20 11:05:53;;;;;;;2.47;1.20;;;9.80;77.80;;;;;;946290;150;27342;-74
2022/01/20 11:08:17;;;;;;;2.93;1.33;;;9.80;77.30;;;;;;946797;148;27377;-75
2022/01/20 11:10:44;;;;;;;2.23;1.50;;;9.80;77.30;;;;;;948788;149;28655;-75
2022/01/20 11:13:10;;;;;;;2.37;1.27;;;9.80;76.80;;;;;;952620;148;27488;-75
2022/01/20 11:15:38;;;;;;;2.93;1.40;;;9.80;76.50;;;;;;953048;150;27400;-74
2022/01/20 11:18:03;;;;;;;3.10;1.40;;;9.80;76.00;;;;;;952520;150;27429;-75
2022/01/20 11:20:33;;;;;;;3.27;1.27;;;9.80;75.90;;;;;;952920;150;27290;-74
2022/01/20 11:22:59;;;;;;;2.67;1.17;;;9.70;75.40;;;;;;950875;149;27365;-75
2022/01/20 11:25:26;;;;;;;2.87;1.40;;;9.60;75.10;;;;;;952363;148;27445;-74
2022/01/20 11:27:53;;;;;;;3.70;1.23;;;9.60;74.70;;;;;;951987;150;27299;-74
2022/01/20 11:30:21;;;;;;;2.43;1.43;;;9.50;74.50;;;;;;952018;149;27313;-75
2022/01/20 11:32:46;;;;;;;3.97;1.47;;;9.50;74.40;;;;;;949683;149;27439;-74
2022/01/20 11:35:13;;;;;;;4.37;1.40;;;9.40;74.30;;;;;;947103;150;27431;-74
2022/01/20 11:37:42;;;;;;;3.57;1.30;;;9.30;74.30;;;;;;953234;148;27346;-74
2022/01/20 11:40:11;;;;;;;2.27;1.70;;;9.20;74.50;;;;;;952606;150;27413;-75
2022/01/20 11:42:38;;;;;;;2.83;1.60;;;9.20;74.60;;;;;;948044;149;27306;-75
2022/01/20 11:45:22;;;;;;;1.97;1.17;;;9.10;74.60;;;;;;951732;148;27346;-74
2022/01/20 11:47:49;;;;;;;6.63;1.80;;;9.10;74.70;;;;;;949484;150;27346;-75
2022/01/20 11:50:15;;;;;;;3.23;1.53;;;9.00;74.70;;;;;;953030;148;27923;-76
2022/01/20 11:52:42;;;;;;;2.50;1.30;;;9.00;74.10;;;;;;952289;147;27334;-75
2022/01/20 11:55:12;;;;;;;4.33;1.50;;;8.90;74.30;;;;;;953064;148;27310;-75
2022/01/20 11:57:38;;;;;;;3.00;1.70;;;8.80;74.20;;;;;;951070;149;27348;-74
2022/01/20 12:00:21;;;;;;;3.67;1.90;;;8.80;74.20;;;;;;952112;149;27415;-73
2022/01/20 12:02:46;;;;;;;5.00;2.03;;;8.70;74.30;;;;;;951787;150;27437;-73
2022/01/20 12:05:29;;;;;;;4.20;1.93;;;8.60;74.60;;;;;;952530;148;27411;-74
2022/01/20 12:08:18;;;;;;;3.43;1.63;;;8.60;74.60;;;;;;952164;150;27287;-73
2022/01/20 12:10:45;;;;;;;4.40;2.10;;;8.60;74.90;;;;;;950071;148;27423;-73
2022/01/20 12:13:12;;;;;;;3.37;1.70;;;8.60;75.10;;;;;;926954;154;27841;-72
2022/01/20 12:15:47;;;;;;;4.07;1.60;;;8.60;75.30;;;;;;927441;154;27847;-73
2022/01/20 12:18:14;;;;;;;5.57;1.47;;;8.70;75.60;;;;;;927109;154;27744;-73
2022/01/20 12:20:40;;;;;;;3.70;1.80;;;8.80;75.80;;;;;;927617;154;27664;-73
2022/01/20 12:23:07;;;;;;;2.43;1.50;;;8.90;75.30;;;;;;927694;154;27461;-73
2022/01/20 12:25:36;;;;;;;4.93;1.50;;;9.00;75.00;;;;;;928814;152;27440;-73
2022/01/20 12:28:09;;;;;;;5.10;1.70;;;9.10;74.90;;;;;;927450;154;27378;-74
2022/01/20 12:30:36;;;;;;;2.70;1.57;;;9.20;74.80;;;;;;927542;152;27689;-73
2022/01/20 12:33:02;;;;;;;3.80;1.60;;;9.30;74.20;;;;;;927067;154;27323;-73
2022/01/20 12:35:37;;;;;;;3.83;1.60;;;9.40;73.90;;;;;;928336;153;27423;-73
2022/01/20 12:38:16;;;;;;;3.27;1.77;;;9.40;73.60;;;;;;926276;154;27338;-74
2022/01/20 12:40:43;;;;;;;4.87;1.80;;;9.40;73.10;;;;;;927079;154;27347;-75
2022/01/20 12:43:09;;;;;;;4.43;1.67;;;9.40;72.50;;;;;;927647;152;27333;-74
2022/01/20 12:48:21;;;;;;;4.10;1.73;;;9.30;72.10;;;;;;927751;154;27450;-73
2022/01/20 12:50:53;;;;;;;3.93;2.00;;;9.20;72.30;;;;;;927160;152;27854;-72
2022/01/20 12:53:20;;;;;;;4.17;1.53;;;9.10;71.90;;;;;;927706;154;27358;-72
2022/01/20 12:55:52;;;;;;;1.80;1.40;;;9.00;72.10;;;;;;926520;154;27413;-73
2022/01/20 12:58:19;;;;;;;3.57;1.80;;;8.80;71.90;;;;;;928216;152;27319;-74
2022/01/20 13:00:45;;;;;;;2.83;1.40;;;8.80;72.30;;;;;;927862;152;27836;-74
2022/01/20 13:03:12;;;;;;;3.27;1.47;;;8.70;72.50;;;;;;923455;152;27291;-74
2022/01/20 13:05:41;;;;;;;2.23;1.40;;;8.60;72.80;;;;;;925518;152;27545;-74
2022/01/20 13:08:05;;;;;;;4.27;1.40;;;8.60;73.10;;;;;;923909;152;27364;-74
2022/01/20 13:10:34;;;;;;;5.13;1.63;;;8.60;73.30;;;;;;924764;152;27337;-72
2022/01/20 13:13:00;;;;;;;3.27;1.53;;;8.60;73.10;;;;;;933585;148;27398;-75
2022/01/20 13:15:25;;;;;;;5.07;2.10;;;8.60;73.10;;;;;;929202;151;27430;-74
2022/01/20 13:18:06;;;;;;;4.27;1.60;;;8.60;72.90;;;;;;928613;154;27344;-74
2022/01/20 13:20:33;;;;;;;3.80;1.83;;;8.60;73.20;;;;;;928714;154;27349;-74
2022/01/20 13:23:01;;;;;;;2.60;1.50;;;8.50;73.30;;;;;;929620;154;27345;-74
2022/01/20 13:25:26;;;;;;;4.60;1.70;;;8.50;73.20;;;;;;944805;151;27356;-73
2022/01/20 13:27:55;;;;;;;4.90;1.67;;;8.40;73.30;;;;;;927094;154;27278;-74
2022/01/20 13:30:25;;;;;;;4.23;1.50;;;8.40;73.50;;;;;;933454;151;27311;-74
2022/01/20 13:32:51;;;;;;;3.60;1.47;;;8.30;73.80;;;;;;929750;151;27373;-74
2022/01/20 13:35:18;;;;;;;3.83;1.80;;;8.30;73.90;;;;;;926067;154;27360;-74
2022/01/20 13:37:47;;;;;;;3.47;1.43;;;8.20;73.90;;;;;;945419;151;27453;-74
2022/01/20 13:40:11;;;;;;;4.00;1.67;;;8.20;74.10;;;;;;929933;151;27451;-74
2022/01/20 13:42:46;;;;;;;2.20;1.47;;;8.20;74.30;;;;;;944966;151;27313;-74
2022/01/20 13:45:13;;;;;;;3.67;1.77;;;8.10;74.40;;;;;;934392;151;27327;-74
2022/01/20 13:47:55;;;;;;;3.53;1.47;;;8.10;74.70;;;;;;930263;151;27460;-73
2022/01/20 13:50:21;;;;;;;4.20;1.90;;;8.10;74.70;;;;;;929231;152;27448;-73
2022/01/20 13:52:48;;;;;;;4.57;1.83;;;8.10;75.00;;;;;;927531;154;27352;-73
2022/01/20 13:55:23;;;;;;;3.00;2.10;;;8.10;74.50;;;;;;945550;151;27341;-73
2022/01/20 13:57:50;;;;;;;2.93;1.70;;;8.10;74.20;;;;;;927266;153;27352;-73
2022/01/20 14:00:17;;;;;;;5.93;2.20;;;8.10;74.10;;;;;;928094;154;27369;-73
2022/01/20 14:02:50;;;;;;;5.17;1.70;;;8.10;74.10;;;;;;927287;153;27450;-73
2022/01/20 14:05:13;;;;;;;2.33;1.43;;;8.10;74.20;;;;;;944395;151;27301;-73